Time;durP1;ratioP1;P1;durP2;ratioP2;P2;SDS_P1;SDS_P2;PMS_P1;PMS_P2;Temp;Humidity;BMP_temperature;BMP_pressure;BME280_temperature;BME280_humidity;BME280_pressure;Samples;Min_cycle;Max_cycle;Signal;HPM_P1;HPM_P2
2023/06/17 00:01:51;;;;;;;8.03;6.87;;;28.20;47.30;;;;;;4937195;29;20415;-71
2023/06/17 00:04:19;;;;;;;7.20;6.50;;;28.30;47.20;;;;;;4979898;23;20495;-81
2023/06/17 00:06:45;;;;;;;6.03;5.63;;;28.20;47.10;;;;;;4927469;29;20450;-84
2023/06/17 00:09:10;;;;;;;6.47;5.97;;;28.20;46.90;;;;;;4926801;28;20490;-82
2023/06/17 00:11:36;;;;;;;7.07;6.57;;;28.10;46.90;;;;;;4977261;28;20186;-82
2023/06/17 00:14:04;;;;;;;6.60;5.87;;;28.20;47.00;;;;;;4960728;28;20215;-83
2023/06/17 00:16:36;;;;;;;6.50;6.10;;;28.10;46.90;;;;;;4961175;28;20533;-83
2023/06/17 00:19:04;;;;;;;7.10;6.20;;;28.10;47.00;;;;;;4960431;28;20473;-84
2023/06/17 00:21:35;;;;;;;6.40;5.90;;;28.10;47.20;;;;;;4958156;28;20475;-83
2023/06/17 00:24:06;;;;;;;6.87;6.17;;;28.00;46.90;;;;;;4925696;29;20443;-83
2023/06/17 00:26:32;;;;;;;7.00;6.40;;;28.00;46.80;;;;;;4909842;29;20521;-82
2023/06/17 00:29:00;;;;;;;6.53;6.07;;;28.00;47.10;;;;;;4946860;28;20437;-83
2023/06/17 00:31:29;;;;;;;7.37;6.87;;;28.00;47.60;;;;;;4928345;29;20490;-83
2023/06/17 00:33:55;;;;;;;7.87;7.27;;;28.00;47.30;;;;;;4941552;29;20809;-83
2023/06/17 00:36:25;;;;;;;7.00;6.50;;;27.90;47.50;;;;;;4929657;28;20907;-83
2023/06/17 00:38:54;;;;;;;6.93;6.43;;;27.90;47.50;;;;;;4962557;28;20768;-82
2023/06/17 00:41:20;;;;;;;6.50;5.90;;;27.90;48.10;;;;;;4941721;28;20440;-83
2023/06/17 00:43:48;;;;;;;6.33;5.83;;;27.90;47.60;;;;;;4947990;28;20863;-83
2023/06/17 00:46:36;;;;;;;7.87;7.20;;;27.80;47.70;;;;;;4948675;28;20506;-83
2023/06/17 00:49:04;;;;;;;7.33;6.10;;;27.80;47.90;;;;;;4965441;28;20414;-83
2023/06/17 00:51:32;;;;;;;6.40;5.80;;;27.80;47.80;;;;;;4965494;28;20767;-82
2023/06/17 00:54:00;;;;;;;7.00;6.30;;;27.80;47.70;;;;;;4952108;28;20426;-83
2023/06/17 00:56:31;;;;;;;6.27;5.70;;;27.80;47.80;;;;;;4933631;29;20928;-83
2023/06/17 00:58:57;;;;;;;6.83;6.30;;;27.70;48.10;;;;;;4933027;29;20423;-81
2023/06/17 01:01:24;;;;;;;6.50;6.03;;;27.80;47.90;;;;;;4968832;28;20432;-82
2023/06/17 01:03:54;;;;;;;6.63;6.10;;;27.70;47.70;;;;;;4932945;29;20850;-83
2023/06/17 01:06:33;;;;;;;9.40;6.80;;;27.70;48.00;;;;;;4967707;28;20472;-83
2023/06/17 01:09:05;;;;;;;7.20;6.40;;;27.60;47.50;;;;;;4946175;29;20537;-83
2023/06/17 01:11:32;;;;;;;6.57;5.73;;;27.60;47.70;;;;;;4932001;29;20755;-81
2023/06/17 01:13:58;;;;;;;6.67;6.20;;;27.60;47.50;;;;;;4958985;29;20430;-82
2023/06/17 01:16:31;;;;;;;7.53;6.93;;;27.60;47.40;;;;;;4928166;28;20440;-82
2023/06/17 01:19:03;;;;;;;6.97;6.37;;;27.50;47.10;;;;;;4976893;28;20552;-83
2023/06/17 01:21:30;;;;;;;6.47;5.90;;;27.50;47.10;;;;;;4971363;28;20450;-83
2023/06/17 01:23:58;;;;;;;7.07;5.70;;;27.50;46.70;;;;;;4940456;29;20711;-83
2023/06/17 01:26:24;;;;;;;6.10;5.60;;;27.50;46.70;;;;;;4943381;28;20930;-81
2023/06/17 01:28:59;;;;;;;6.80;6.10;;;27.50;46.40;;;;;;4959495;28;20426;-83
2023/06/17 01:31:26;;;;;;;6.60;6.10;;;27.40;46.30;;;;;;4955758;29;20411;-83
2023/06/17 01:34:00;;;;;;;7.60;6.90;;;27.40;46.10;;;;;;4956665;28;20457;-83
2023/06/17 01:36:33;;;;;;;7.10;6.40;;;27.40;46.00;;;;;;4959459;28;20746;-83
2023/06/17 01:39:06;;;;;;;7.03;6.50;;;27.40;46.00;;;;;;4976401;28;20446;-82
2023/06/17 01:41:40;;;;;;;6.73;6.07;;;27.30;45.90;;;;;;4952892;29;20935;-83
2023/06/17 01:44:13;;;;;;;6.53;6.03;;;27.30;45.70;;;;;;4940160;29;20403;-83
2023/06/17 01:46:41;;;;;;;7.53;6.93;;;27.30;45.80;;;;;;4949366;28;20461;-82
2023/06/17 01:49:11;;;;;;;6.73;6.23;;;27.30;45.80;;;;;;4959523;28;20985;-82
2023/06/17 01:51:38;;;;;;;7.30;6.80;;;27.20;45.50;;;;;;4937506;29;20427;-83
2023/06/17 01:54:07;;;;;;;7.10;6.50;;;27.20;45.60;;;;;;4924703;29;20729;-81
2023/06/17 01:56:36;;;;;;;6.83;6.20;;;27.20;45.50;;;;;;4940205;29;20465;-83
2023/06/17 01:59:02;;;;;;;7.30;6.80;;;27.20;45.30;;;;;;4924315;29;20843;-83
2023/06/17 02:01:28;;;;;;;7.50;6.90;;;27.20;45.30;;;;;;4950828;28;20441;-82
2023/06/17 02:03:56;;;;;;;6.40;6.00;;;27.20;45.00;;;;;;4958867;28;20442;-83
2023/06/17 02:06:24;;;;;;;6.30;5.70;;;27.10;45.40;;;;;;4974578;28;20190;-83
2023/06/17 02:08:56;;;;;;;6.83;6.33;;;27.10;44.80;;;;;;4943986;28;20422;-83
2023/06/17 02:11:25;;;;;;;7.30;6.80;;;27.10;44.90;;;;;;4958046;28;20565;-83
2023/06/17 02:13:53;;;;;;;7.60;6.90;;;27.00;44.80;;;;;;4943042;28;20536;-82
2023/06/17 02:16:22;;;;;;;6.60;6.10;;;27.00;45.00;;;;;;4918326;29;20447;-82
2023/06/17 02:18:54;;;;;;;7.10;6.50;;;27.00;45.20;;;;;;4939381;29;20431;-83
2023/06/17 02:21:20;;;;;;;7.00;6.40;;;27.00;45.10;;;;;;4940300;29;20478;-83
2023/06/17 02:23:49;;;;;;;7.13;6.50;;;26.90;45.00;;;;;;4947633;28;20430;-82
2023/06/17 02:26:18;;;;;;;7.00;6.40;;;27.00;45.00;;;;;;4942585;28;20441;-82
2023/06/17 02:28:44;;;;;;;7.70;7.00;;;26.90;45.00;;;;;;4941606;28;20477;-82
2023/06/17 02:31:10;;;;;;;7.37;6.77;;;26.90;44.90;;;;;;4942533;28;20465;-82
2023/06/17 02:33:36;;;;;;;6.90;6.40;;;26.90;45.00;;;;;;4958764;28;20418;-82
2023/06/17 02:36:02;;;;;;;6.93;6.43;;;26.80;45.10;;;;;;4957894;28;20252;-82
2023/06/17 02:38:28;;;;;;;8.40;7.83;;;26.90;44.80;;;;;;4942509;28;20418;-83
2023/06/17 02:40:55;;;;;;;6.90;6.40;;;26.80;44.80;;;;;;4925533;28;20438;-83
2023/06/17 02:43:21;;;;;;;6.93;6.43;;;26.80;44.80;;;;;;4936174;29;20893;-82
2023/06/17 02:45:46;;;;;;;6.77;6.27;;;26.70;44.60;;;;;;4948966;28;20210;-82
2023/06/17 02:48:14;;;;;;;6.53;6.00;;;26.80;44.50;;;;;;4942397;28;20904;-83
2023/06/17 02:50:41;;;;;;;8.20;7.60;;;26.70;44.40;;;;;;4941717;28;20686;-82
2023/06/17 02:53:07;;;;;;;7.03;6.63;;;26.70;44.40;;;;;;4922604;29;20543;-82
2023/06/17 02:55:33;;;;;;;7.57;7.07;;;26.70;44.40;;;;;;4939294;29;20411;-83
2023/06/17 02:58:06;;;;;;;7.37;6.87;;;26.60;44.40;;;;;;4908647;29;20478;-82
2023/06/17 03:00:40;;;;;;;6.80;6.17;;;26.60;44.40;;;;;;4926750;28;20434;-81
2023/06/17 03:03:09;;;;;;;6.90;6.30;;;26.60;44.70;;;;;;4923052;29;20972;-83
2023/06/17 03:05:37;;;;;;;7.83;6.90;;;26.60;44.50;;;;;;4927140;29;20479;-83
2023/06/17 03:08:04;;;;;;;7.67;7.07;;;26.60;44.50;;;;;;4923349;29;20518;-82
2023/06/17 03:10:32;;;;;;;6.53;6.03;;;26.50;44.50;;;;;;4940324;29;20470;-83
2023/06/17 03:13:04;;;;;;;7.23;6.67;;;26.60;44.60;;;;;;4959382;28;20466;-82
2023/06/17 03:15:42;;;;;;;7.00;6.50;;;26.50;44.60;;;;;;4933960;29;20783;-82
2023/06/17 03:18:09;;;;;;;6.90;6.30;;;26.50;44.60;;;;;;4942801;29;20203;-83
2023/06/17 03:20:38;;;;;;;6.83;6.13;;;26.50;44.60;;;;;;4945420;28;20418;-83
2023/06/17 03:23:06;;;;;;;6.77;6.07;;;26.40;44.60;;;;;;4927697;29;20500;-82
2023/06/17 03:25:32;;;;;;;7.33;6.83;;;26.40;44.70;;;;;;4945531;28;20458;-82
2023/06/17 03:28:00;;;;;;;7.27;6.57;;;26.40;44.80;;;;;;4961731;28;20414;-82
2023/06/17 03:30:28;;;;;;;7.23;6.73;;;26.40;44.70;;;;;;4960737;28;20273;-83
2023/06/17 03:32:57;;;;;;;7.10;6.50;;;26.30;44.70;;;;;;4942654;29;20447;-82
2023/06/17 03:35:24;;;;;;;6.97;6.47;;;26.30;44.70;;;;;;4926672;29;20431;-83
2023/06/17 03:37:55;;;;;;;7.30;6.70;;;26.30;44.80;;;;;;4939865;28;20464;-82
2023/06/17 03:40:23;;;;;;;6.70;6.20;;;26.30;44.80;;;;;;4961281;28;20425;-82
2023/06/17 03:42:54;;;;;;;6.97;6.47;;;26.30;44.80;;;;;;4942474;29;20466;-82
2023/06/17 03:45:21;;;;;;;7.13;6.53;;;26.30;44.90;;;;;;4949682;28;20891;-82
2023/06/17 03:47:51;;;;;;;6.80;6.37;;;26.20;44.80;;;;;;4964404;28;20418;-82
2023/06/17 03:50:19;;;;;;;6.50;5.90;;;26.20;44.90;;;;;;4942756;29;20478;-81
2023/06/17 03:52:47;;;;;;;6.93;6.33;;;26.20;44.90;;;;;;4927204;29;20427;-82
2023/06/17 03:55:16;;;;;;;6.47;5.93;;;26.20;44.90;;;;;;4942092;29;20565;-82
2023/06/17 03:57:42;;;;;;;7.63;7.07;;;26.10;44.90;;;;;;4944256;28;20442;-83
2023/06/17 04:00:11;;;;;;;6.80;6.30;;;26.10;44.90;;;;;;4959813;28;20425;-82
2023/06/17 04:02:47;;;;;;;7.53;6.90;;;26.10;45.10;;;;;;4960381;28;20457;-83
2023/06/17 04:05:31;;;;;;;6.73;6.20;;;26.10;45.00;;;;;;4942018;29;20469;-83
2023/06/17 04:07:59;;;;;;;6.83;6.23;;;26.10;45.10;;;;;;4948050;29;20451;-82
2023/06/17 04:10:26;;;;;;;6.70;6.10;;;26.10;45.10;;;;;;4942144;28;20542;-82
2023/06/17 04:13:04;;;;;;;7.30;6.70;;;26.00;45.00;;;;;;4943967;28;20445;-83
2023/06/17 04:15:35;;;;;;;5.90;5.40;;;26.00;45.10;;;;;;4976476;28;20789;-83
2023/06/17 04:18:03;;;;;;;6.77;6.27;;;26.00;45.10;;;;;;4943614;28;20454;-83
2023/06/17 04:20:34;;;;;;;6.63;6.20;;;26.00;45.10;;;;;;4948399;28;21034;-84
2023/06/17 04:23:03;;;;;;;7.17;6.67;;;25.90;45.10;;;;;;4956884;28;20422;-84
2023/06/17 04:25:36;;;;;;;7.00;6.50;;;25.90;45.10;;;;;;4908861;29;20900;-83
2023/06/17 04:28:07;;;;;;;6.80;6.20;;;25.90;45.20;;;;;;4961203;28;20473;-83
2023/06/17 04:30:39;;;;;;;6.70;6.20;;;25.90;45.20;;;;;;4969402;29;20460;-83
2023/06/17 04:33:06;;;;;;;6.50;6.03;;;25.80;45.20;;;;;;4925209;29;20435;-82
2023/06/17 04:35:32;;;;;;;6.67;6.07;;;25.80;45.20;;;;;;4924412;29;20443;-83
2023/06/17 04:38:03;;;;;;;6.50;6.10;;;25.90;45.30;;;;;;4952560;28;20434;-82
2023/06/17 04:40:31;;;;;;;7.63;6.97;;;25.80;45.30;;;;;;4924284;29;20458;-82
2023/06/17 04:42:58;;;;;;;6.67;6.07;;;25.80;45.30;;;;;;4922302;29;21135;-82
2023/06/17 04:45:27;;;;;;;7.00;6.30;;;25.80;45.40;;;;;;4922284;28;20446;-82
2023/06/17 04:48:03;;;;;;;7.00;6.40;;;25.80;45.50;;;;;;4924489;29;20462;-81
2023/06/17 04:50:29;;;;;;;6.80;6.30;;;25.80;45.60;;;;;;4940269;28;20487;-82
2023/06/17 04:53:03;;;;;;;6.77;6.27;;;25.70;45.70;;;;;;4940564;29;20678;-83
2023/06/17 04:55:35;;;;;;;6.83;6.33;;;25.70;45.70;;;;;;4940230;29;20407;-82
2023/06/17 04:58:07;;;;;;;6.90;6.40;;;25.70;45.80;;;;;;4925989;29;20463;-82
2023/06/17 05:00:45;;;;;;;7.00;6.40;;;25.70;45.90;;;;;;4943399;28;21211;-83
2023/06/17 05:03:14;;;;;;;7.37;6.87;;;25.70;46.00;;;;;;4927034;29;20486;-83
2023/06/17 05:05:42;;;;;;;7.70;7.13;;;25.70;46.10;;;;;;4908931;29;20450;-83
2023/06/17 05:08:08;;;;;;;7.00;6.40;;;25.60;46.10;;;;;;4919282;29;20195;-83
2023/06/17 05:10:37;;;;;;;7.27;6.57;;;25.60;46.20;;;;;;4924882;29;20471;-82
2023/06/17 05:13:03;;;;;;;6.80;6.30;;;25.60;46.30;;;;;;4943309;28;20557;-83
2023/06/17 05:15:35;;;;;;;7.07;6.37;;;25.60;46.40;;;;;;4955153;29;20450;-82
2023/06/17 05:18:03;;;;;;;6.77;6.27;;;25.60;46.50;;;;;;4923711;29;20427;-83
2023/06/17 05:20:32;;;;;;;6.97;6.40;;;25.60;46.60;;;;;;4956289;28;20482;-82
2023/06/17 05:23:00;;;;;;;7.53;6.70;;;25.60;46.80;;;;;;4924144;29;20445;-83
2023/06/17 05:25:30;;;;;;;7.23;6.63;;;25.60;46.90;;;;;;4929093;29;20435;-83
2023/06/17 05:27:56;;;;;;;7.30;6.80;;;25.60;46.90;;;;;;4941833;28;20445;-82
2023/06/17 05:30:25;;;;;;;7.37;6.67;;;25.60;47.00;;;;;;4946152;29;20262;-82
2023/06/17 05:32:54;;;;;;;7.10;6.50;;;25.60;47.00;;;;;;4939015;29;20827;-83
2023/06/17 05:35:22;;;;;;;7.20;6.60;;;25.50;47.10;;;;;;4939102;29;20443;-82
2023/06/17 05:37:50;;;;;;;7.47;6.90;;;25.50;47.10;;;;;;4939993;29;20203;-82
2023/06/17 05:40:19;;;;;;;6.90;6.30;;;25.50;47.20;;;;;;4933537;28;20778;-82
2023/06/17 05:42:48;;;;;;;6.67;6.20;;;25.50;47.30;;;;;;4967190;28;20426;-81
2023/06/17 05:45:17;;;;;;;7.73;7.00;;;25.50;47.30;;;;;;4955942;28;20429;-83
2023/06/17 05:47:43;;;;;;;7.70;7.10;;;25.50;47.30;;;;;;4958885;28;20441;-82
2023/06/17 05:50:11;;;;;;;7.03;6.43;;;25.50;47.10;;;;;;4936792;28;20469;-82
2023/06/17 05:52:40;;;;;;;7.00;6.60;;;25.50;47.10;;;;;;4942777;28;20194;-82
2023/06/17 05:55:09;;;;;;;7.57;6.97;;;25.50;47.10;;;;;;4958432;28;20446;-82
2023/06/17 05:57:36;;;;;;;8.53;7.93;;;25.40;47.10;;;;;;4940661;29;20187;-82
2023/06/17 06:00:05;;;;;;;7.43;6.80;;;25.40;47.00;;;;;;4914110;28;20438;-85
2023/06/17 06:02:39;;;;;;;6.70;6.20;;;25.40;46.90;;;;;;4941570;28;20552;-82
2023/06/17 06:05:10;;;;;;;7.33;6.83;;;25.40;46.90;;;;;;4940244;29;20522;-82
2023/06/17 06:07:37;;;;;;;8.10;7.40;;;25.40;46.90;;;;;;4939083;29;20530;-82
2023/06/17 06:10:07;;;;;;;8.40;7.90;;;25.40;46.90;;;;;;4911006;29;20484;-82
2023/06/17 06:12:40;;;;;;;8.07;7.47;;;25.40;47.00;;;;;;4938870;29;20461;-82
2023/06/17 06:15:09;;;;;;;8.47;7.60;;;25.40;47.00;;;;;;4923429;29;20766;-82
2023/06/17 06:17:40;;;;;;;7.63;7.10;;;25.40;47.00;;;;;;4923725;29;20534;-83
2023/06/17 06:20:08;;;;;;;7.73;7.13;;;25.40;47.00;;;;;;4924077;29;20454;-83
2023/06/17 06:22:34;;;;;;;7.50;7.00;;;25.40;47.00;;;;;;4922890;29;20450;-82
2023/06/17 06:25:09;;;;;;;7.43;6.67;;;25.40;47.10;;;;;;4908639;29;20521;-82
2023/06/17 06:27:37;;;;;;;8.10;7.30;;;25.40;47.10;;;;;;4955547;28;20449;-82
2023/06/17 06:30:07;;;;;;;7.87;6.63;;;25.40;47.10;;;;;;4957982;28;20488;-83
2023/06/17 06:32:37;;;;;;;7.73;7.13;;;25.40;47.10;;;;;;4961498;28;20426;-82
2023/06/17 06:35:06;;;;;;;7.80;7.10;;;25.40;47.20;;;;;;4938645;29;20546;-82
2023/06/17 06:37:37;;;;;;;8.03;6.67;;;25.30;47.20;;;;;;4907121;29;20478;-80
2023/06/17 06:40:11;;;;;;;7.53;7.03;;;25.30;47.10;;;;;;4928683;29;20439;-81
2023/06/17 06:42:42;;;;;;;8.73;6.90;;;25.40;47.10;;;;;;4938292;29;20442;-81
2023/06/17 06:45:15;;;;;;;8.60;8.00;;;25.30;47.10;;;;;;4956126;28;20441;-81
2023/06/17 06:47:43;;;;;;;8.70;7.90;;;25.30;47.10;;;;;;4942058;28;20537;-80
2023/06/17 06:50:09;;;;;;;8.00;7.40;;;25.30;47.10;;;;;;4937072;28;20532;-80
2023/06/17 06:52:41;;;;;;;8.13;7.33;;;25.30;47.10;;;;;;4941974;28;20755;-81
2023/06/17 06:55:10;;;;;;;8.73;7.87;;;25.30;47.00;;;;;;4939400;28;20418;-81
2023/06/17 06:57:43;;;;;;;8.57;7.97;;;25.30;47.00;;;;;;4957904;28;20480;-80
2023/06/17 07:00:09;;;;;;;7.83;7.23;;;25.30;46.90;;;;;;4918296;29;20494;-80
2023/06/17 07:02:37;;;;;;;7.77;7.20;;;25.40;47.00;;;;;;4922597;29;20443;-81
2023/06/17 07:05:08;;;;;;;8.67;7.97;;;25.40;47.00;;;;;;4942623;28;20465;-81
2023/06/17 07:07:44;;;;;;;7.30;6.70;;;25.40;46.90;;;;;;4932646;28;20454;-81
2023/06/17 07:10:14;;;;;;;7.90;7.30;;;25.40;46.90;;;;;;4945287;29;20587;-81
2023/06/17 07:12:43;;;;;;;7.80;6.70;;;25.40;46.90;;;;;;4906595;29;20913;-80
2023/06/17 07:15:10;;;;;;;7.67;7.17;;;25.40;46.80;;;;;;4923845;28;20468;-81
2023/06/17 07:17:36;;;;;;;6.90;6.30;;;25.40;46.70;;;;;;4956121;28;20450;-81
2023/06/17 07:20:05;;;;;;;8.23;7.53;;;25.40;46.70;;;;;;4948751;28;20454;-81
2023/06/17 07:22:31;;;;;;;7.37;6.70;;;25.40;46.70;;;;;;4941827;28;20429;-81
2023/06/17 07:24:58;;;;;;;7.53;6.90;;;25.40;46.60;;;;;;4922314;29;20442;-80
2023/06/17 07:27:29;;;;;;;8.83;7.77;;;25.40;46.60;;;;;;4939291;29;20780;-80
2023/06/17 07:29:55;;;;;;;7.90;7.30;;;25.40;46.50;;;;;;4964577;28;20461;-81
2023/06/17 07:32:23;;;;;;;7.60;6.90;;;25.40;46.50;;;;;;4957242;28;20926;-80
2023/06/17 07:34:51;;;;;;;7.70;7.10;;;25.40;46.50;;;;;;4957912;28;20411;-80
2023/06/17 07:37:17;;;;;;;8.57;7.87;;;25.40;46.50;;;;;;4957353;28;20799;-80
2023/06/17 07:39:46;;;;;;;8.20;7.60;;;25.40;46.50;;;;;;4919113;29;20525;-81
2023/06/17 07:42:16;;;;;;;8.27;7.43;;;25.40;46.50;;;;;;4961327;28;20512;-80
2023/06/17 07:44:45;;;;;;;8.40;7.70;;;25.50;46.50;;;;;;4942154;28;20418;-81
2023/06/17 07:47:13;;;;;;;8.77;8.07;;;25.50;46.60;;;;;;4936376;29;20457;-81
2023/06/17 07:49:39;;;;;;;10.07;9.10;;;25.50;46.60;;;;;;4944689;28;20469;-81
2023/06/17 07:52:09;;;;;;;8.90;8.10;;;25.50;46.70;;;;;;4957767;28;20469;-82
2023/06/17 07:54:41;;;;;;;9.50;8.60;;;25.50;46.70;;;;;;4945241;29;20430;-81
2023/06/17 07:57:12;;;;;;;8.63;7.80;;;25.50;46.60;;;;;;4928859;28;20439;-80
2023/06/17 07:59:40;;;;;;;9.60;8.60;;;25.60;46.70;;;;;;4932634;29;20477;-83
2023/06/17 08:02:08;;;;;;;8.97;8.17;;;25.60;46.70;;;;;;4947588;28;20778;-82
2023/06/17 08:04:35;;;;;;;10.27;7.77;;;25.60;46.60;;;;;;4935787;29;20489;-83
2023/06/17 08:07:02;;;;;;;8.10;7.40;;;25.60;46.50;;;;;;4942314;29;20517;-81
2023/06/17 08:09:28;;;;;;;9.00;8.20;;;25.60;46.50;;;;;;4960103;28;20465;-81
2023/06/17 08:11:54;;;;;;;9.57;8.73;;;25.60;46.50;;;;;;4943813;29;20581;-85
2023/06/17 08:14:20;;;;;;;8.90;8.10;;;25.60;46.40;;;;;;4942308;28;20295;-84
2023/06/17 08:16:46;;;;;;;8.10;7.37;;;25.60;46.30;;;;;;4953942;29;20479;-84
2023/06/17 08:19:25;;;;;;;9.80;8.00;;;25.60;46.20;;;;;;4942056;29;20427;-84
2023/06/17 08:21:53;;;;;;;9.03;8.23;;;25.60;46.10;;;;;;4926090;29;20471;-84
2023/06/17 08:24:26;;;;;;;9.43;8.60;;;25.70;46.10;;;;;;4910804;29;20435;-85
2023/06/17 08:26:53;;;;;;;9.67;8.77;;;25.70;46.20;;;;;;4926292;29;20430;-85
2023/06/17 08:29:22;;;;;;;8.70;7.90;;;25.70;46.10;;;;;;4942053;29;20447;-85
2023/06/17 08:31:50;;;;;;;9.40;8.20;;;25.70;46.10;;;;;;4957760;28;20472;-85
2023/06/17 08:34:16;;;;;;;9.20;8.30;;;25.80;46.20;;;;;;4977807;28;20556;-85
2023/06/17 08:36:45;;;;;;;9.03;7.83;;;25.80;46.10;;;;;;4972921;28;20434;-84
2023/06/17 08:39:14;;;;;;;9.20;8.40;;;25.80;46.10;;;;;;4925944;29;20438;-84
2023/06/17 08:41:41;;;;;;;8.93;8.07;;;25.80;46.10;;;;;;4922255;29;20460;-84
2023/06/17 08:44:10;;;;;;;8.63;7.53;;;25.80;46.10;;;;;;4910306;29;20434;-85
2023/06/17 08:46:41;;;;;;;9.70;8.80;;;25.90;46.10;;;;;;4929756;28;20445;-85
2023/06/17 08:49:12;;;;;;;9.77;8.90;;;25.90;46.00;;;;;;4960661;28;20434;-84
2023/06/17 08:51:43;;;;;;;8.87;8.00;;;25.90;46.00;;;;;;4976888;28;20802;-84
2023/06/17 08:54:11;;;;;;;12.37;8.80;;;25.90;46.00;;;;;;4941510;29;20446;-84
2023/06/17 08:56:38;;;;;;;10.03;9.03;;;25.90;46.00;;;;;;4941262;29;20499;-85
2023/06/17 08:59:03;;;;;;;9.10;8.20;;;26.00;46.10;;;;;;4925669;29;20431;-84
2023/06/17 09:01:37;;;;;;;8.77;7.90;;;26.00;46.10;;;;;;4971464;28;20430;-84
2023/06/17 09:04:07;;;;;;;9.90;8.90;;;26.00;46.10;;;;;;4960862;28;20445;-84
2023/06/17 09:06:36;;;;;;;10.00;8.90;;;26.00;46.10;;;;;;4977216;28;20445;-86
2023/06/17 09:09:01;;;;;;;10.57;8.43;;;26.10;46.20;;;;;;4926791;29;20910;-85
2023/06/17 09:11:32;;;;;;;9.93;8.90;;;26.00;46.20;;;;;;4953542;28;20967;-85
2023/06/17 09:14:04;;;;;;;10.10;8.60;;;26.10;46.10;;;;;;4944593;28;20449;-84
2023/06/17 09:16:31;;;;;;;9.73;8.63;;;26.10;46.10;;;;;;4953584;29;20434;-85
2023/06/17 09:18:58;;;;;;;9.43;8.53;;;26.10;46.00;;;;;;4941033;29;20462;-86
2023/06/17 09:21:25;;;;;;;9.90;8.90;;;26.20;46.00;;;;;;4957761;29;20433;-85
2023/06/17 09:23:58;;;;;;;8.87;7.90;;;26.20;46.00;;;;;;4924565;29;20487;-85
2023/06/17 09:26:33;;;;;;;9.90;9.00;;;26.20;46.00;;;;;;4925110;29;20506;-86
2023/06/17 09:29:06;;;;;;;10.50;9.50;;;26.30;46.00;;;;;;4936830;28;20428;-85
2023/06/17 09:31:47;;;;;;;9.90;9.00;;;26.30;45.90;;;;;;4927385;29;20502;-85
2023/06/17 09:34:13;;;;;;;8.37;7.60;;;26.30;45.90;;;;;;4940371;29;20945;-84
2023/06/17 09:36:44;;;;;;;10.00;9.10;;;26.30;45.90;;;;;;4924479;29;20502;-85
2023/06/17 09:39:15;;;;;;;10.60;9.53;;;26.40;46.00;;;;;;4964357;28;20540;-85
2023/06/17 09:41:44;;;;;;;9.23;8.40;;;26.40;45.90;;;;;;4925791;29;20423;-85
2023/06/17 09:44:21;;;;;;;9.23;8.33;;;26.50;45.90;;;;;;4957155;28;20423;-84
2023/06/17 09:46:47;;;;;;;9.73;8.87;;;26.50;45.90;;;;;;4939994;29;20482;-85
2023/06/17 09:49:23;;;;;;;9.40;8.40;;;26.60;45.80;;;;;;4908951;29;20490;-85
2023/06/17 09:51:51;;;;;;;10.07;8.47;;;26.60;45.80;;;;;;4924279;29;20431;-86
2023/06/17 09:54:20;;;;;;;9.47;8.40;;;26.60;45.70;;;;;;4940266;29;20478;-86
2023/06/17 09:56:52;;;;;;;8.57;7.67;;;26.60;45.60;;;;;;4931441;29;20470;-82
2023/06/17 09:59:21;;;;;;;9.83;8.93;;;26.70;45.50;;;;;;4956882;29;20418;-82
2023/06/17 10:01:48;;;;;;;9.13;8.30;;;26.70;45.60;;;;;;4924533;29;20445;-83
2023/06/17 10:04:14;;;;;;;7.90;7.20;;;26.70;45.50;;;;;;4908439;29;20501;-82
2023/06/17 10:06:46;;;;;;;8.67;7.80;;;26.80;45.60;;;;;;4968748;28;20521;-83
2023/06/17 10:09:14;;;;;;;8.63;7.93;;;26.80;45.50;;;;;;4943816;28;20446;-84
2023/06/17 10:11:48;;;;;;;8.40;7.70;;;26.80;45.30;;;;;;4948908;29;20466;-83
2023/06/17 10:14:18;;;;;;;8.87;8.03;;;26.90;45.20;;;;;;4922701;28;20457;-84
2023/06/17 10:16:47;;;;;;;8.43;7.73;;;26.90;45.10;;;;;;4937651;28;20427;-83
2023/06/17 10:20:10;;;;;;;14.90;8.27;;;27.00;45.00;;;;;;4958610;28;20410;-83
2023/06/17 10:22:42;;;;;;;9.30;7.90;;;27.00;44.80;;;;;;4965002;28;20433;-83
2023/06/17 10:25:10;;;;;;;8.60;7.90;;;27.00;44.80;;;;;;4957904;28;20425;-82
2023/06/17 10:27:36;;;;;;;9.30;8.40;;;27.10;44.80;;;;;;4952491;28;20429;-81
2023/06/17 10:30:23;;;;;;;8.67;7.97;;;27.10;44.70;;;;;;4945251;28;20473;-83
2023/06/17 10:33:01;;;;;;;7.80;7.20;;;27.10;44.50;;;;;;4947648;28;20454;-82
2023/06/17 10:35:41;;;;;;;8.80;8.00;;;27.20;44.50;;;;;;4963846;28;20414;-82
2023/06/17 10:38:35;;;;;;;8.47;7.77;;;27.20;44.40;;;;;;4932973;28;20469;-83
2023/06/17 10:41:01;;;;;;;8.60;7.80;;;27.30;44.30;;;;;;4969981;28;20407;-84
2023/06/17 10:43:55;;;;;;;8.33;7.63;;;27.30;44.30;;;;;;4983815;28;20419;-85
2023/06/17 10:46:26;;;;;;;8.40;7.80;;;27.40;44.20;;;;;;4957600;28;20441;-84
2023/06/17 10:48:59;;;;;;;8.57;7.90;;;27.40;44.10;;;;;;4968878;28;20425;-83
2023/06/17 10:51:31;;;;;;;7.50;6.90;;;27.40;44.10;;;;;;4942561;28;20556;-83
2023/06/17 10:53:57;;;;;;;8.00;7.30;;;27.40;44.00;;;;;;4941777;28;20445;-84
2023/06/17 10:56:32;;;;;;;8.33;7.63;;;27.50;44.00;;;;;;4950045;28;20846;-86
2023/06/17 10:58:59;;;;;;;7.27;6.77;;;27.50;43.80;;;;;;4956210;28;20414;-84
2023/06/17 11:01:25;;;;;;;8.33;7.63;;;27.60;43.80;;;;;;4926542;28;20422;-85
2023/06/17 11:04:42;;;;;;;8.27;7.47;;;27.60;43.60;;;;;;4961337;28;20481;-84
2023/06/17 11:08:04;;;;;;;8.57;7.80;;;27.70;43.50;;;;;;4934168;28;20434;-85
2023/06/17 11:14:40;;;;;;;10.33;6.70;;;27.70;40.90;;;;;;4939623;29;20427;-85
2023/06/17 11:17:08;;;;;;;7.67;6.90;;;27.70;41.00;;;;;;4926825;28;20467;-84
2023/06/17 11:19:33;;;;;;;8.33;7.73;;;27.70;40.60;;;;;;4933408;29;20518;-84
2023/06/17 11:22:03;;;;;;;6.80;6.27;;;27.80;40.30;;;;;;4925053;29;20485;-84
2023/06/17 11:24:32;;;;;;;7.83;7.13;;;27.90;39.90;;;;;;4940024;29;20434;-84
2023/06/17 11:27:00;;;;;;;7.40;6.60;;;27.90;39.90;;;;;;4928724;29;20494;-84
2023/06/17 11:29:26;;;;;;;7.30;6.60;;;28.00;40.00;;;;;;4956229;29;20445;-84
2023/06/17 11:32:02;;;;;;;7.00;6.40;;;28.10;39.40;;;;;;4940779;29;20763;-84
2023/06/17 11:34:31;;;;;;;9.90;6.13;;;28.10;38.40;;;;;;4935028;29;20450;-84
2023/06/17 11:37:06;;;;;;;7.67;6.97;;;28.20;38.70;;;;;;4950260;28;20454;-84
2023/06/17 11:39:32;;;;;;;7.37;6.77;;;28.30;39.00;;;;;;4971025;28;20442;-84
2023/06/17 11:42:02;;;;;;;16.70;7.03;;;28.40;39.20;;;;;;4964108;28;20525;-84
2023/06/17 11:44:34;;;;;;;7.57;6.83;;;28.40;39.10;;;;;;4958204;28;20426;-84
2023/06/17 11:47:07;;;;;;;10.63;7.20;;;28.50;39.20;;;;;;4927346;28;20497;-84
2023/06/17 11:49:40;;;;;;;8.43;7.00;;;28.60;38.90;;;;;;4942614;29;20501;-84
2023/06/17 11:52:09;;;;;;;8.57;6.73;;;28.60;38.70;;;;;;4926718;29;20438;-84
2023/06/17 11:54:48;;;;;;;7.13;6.63;;;28.70;38.60;;;;;;4939729;28;20437;-83
2023/06/17 11:57:24;;;;;;;18.33;7.20;;;28.80;38.70;;;;;;4957323;28;20430;-84
2023/06/17 11:59:51;;;;;;;16.60;6.67;;;28.80;37.10;;;;;;4945481;28;20477;-83
2023/06/17 12:02:19;;;;;;;7.23;6.53;;;28.80;36.40;;;;;;4977648;28;20430;-84
2023/06/17 12:04:46;;;;;;;7.50;6.80;;;28.90;35.90;;;;;;4978608;28;20757;-84
2023/06/17 12:07:13;;;;;;;12.57;6.60;;;29.00;36.50;;;;;;4944983;28;20765;-84
2023/06/17 12:09:53;;;;;;;7.37;6.70;;;29.10;36.00;;;;;;4961353;28;20473;-84
2023/06/17 12:12:32;;;;;;;6.90;6.40;;;29.10;35.80;;;;;;4945278;28;20517;-84
2023/06/17 12:15:03;;;;;;;7.20;6.60;;;29.20;36.00;;;;;;4945247;28;20423;-83
2023/06/17 12:17:50;;;;;;;6.90;6.20;;;29.20;36.40;;;;;;4961413;28;20430;-84
2023/06/17 12:20:18;;;;;;;7.97;7.37;;;29.30;36.00;;;;;;4960631;28;20947;-84
2023/06/17 12:22:49;;;;;;;17.03;7.80;;;29.30;36.20;;;;;;4930450;28;20434;-84
2023/06/17 12:25:15;;;;;;;16.47;7.40;;;29.40;36.20;;;;;;4944469;29;20517;-83
2023/06/17 12:27:44;;;;;;;24.37;7.87;;;29.40;36.20;;;;;;4959075;29;20441;-86
2023/06/17 12:30:13;;;;;;;13.60;7.73;;;29.40;36.00;;;;;;4958949;28;20771;-85
2023/06/17 12:32:39;;;;;;;9.13;6.93;;;29.50;36.10;;;;;;4941983;29;20476;-85
2023/06/17 12:35:16;;;;;;;11.77;8.27;;;29.50;35.40;;;;;;4927048;29;20427;-86
2023/06/17 12:37:43;;;;;;;13.07;7.90;;;29.50;36.60;;;;;;4959086;28;20793;-85
2023/06/17 12:40:11;;;;;;;11.27;8.00;;;29.60;35.20;;;;;;4928475;28;20856;-85
2023/06/17 12:42:41;;;;;;;11.07;7.50;;;29.50;35.60;;;;;;4959846;28;20935;-85
2023/06/17 12:45:10;;;;;;;7.63;6.90;;;29.50;35.10;;;;;;4910148;29;20419;-84
2023/06/17 12:47:38;;;;;;;7.07;6.33;;;29.50;35.40;;;;;;4941746;29;20478;-85
2023/06/17 12:50:08;;;;;;;7.33;6.63;;;29.50;35.20;;;;;;4934618;28;20502;-86
2023/06/17 12:52:37;;;;;;;8.50;7.80;;;29.50;35.60;;;;;;4925772;29;20447;-85
2023/06/17 12:55:04;;;;;;;7.60;6.80;;;29.60;35.70;;;;;;4957142;28;20426;-85
2023/06/17 12:57:30;;;;;;;7.97;7.20;;;29.70;36.00;;;;;;4976715;28;20520;-85
2023/06/17 12:59:56;;;;;;;7.73;7.13;;;29.70;36.60;;;;;;4944427;28;20565;-85
2023/06/17 13:02:24;;;;;;;8.27;7.67;;;29.70;36.00;;;;;;4941107;28;20195;-84
2023/06/17 13:04:50;;;;;;;7.80;7.10;;;29.80;36.30;;;;;;4960356;28;20217;-85